createdAt,value
2019-04-03T00:00:13.005Z,10.80
2019-04-03T00:05:12.674Z,12.50
2019-04-03T00:10:12.826Z,11.63
2019-04-03T00:15:13.742Z,12.63
2019-04-03T00:20:14.609Z,9.70
2019-04-03T00:25:14.230Z,12.30
2019-04-03T00:30:14.386Z,14.40
2019-04-03T00:35:14.141Z,10.40
2019-04-03T00:40:13.999Z,13.73
2019-04-03T00:45:13.781Z,11.40
2019-04-03T00:50:13.467Z,14.40
2019-04-03T00:55:13.281Z,16.80
2019-04-03T01:00:32.142Z,11.60
2019-04-03T01:05:32.118Z,15.07
2019-04-03T01:10:50.986Z,12.70
2019-04-03T01:15:50.642Z,12.93
2019-04-03T01:20:51.246Z,15.60
2019-04-03T01:25:50.877Z,16.50
2019-04-03T01:30:50.582Z,12.10
2019-04-03T01:35:50.249Z,16.57
2019-04-03T01:40:50.594Z,17.60
2019-04-03T01:45:50.745Z,13.70
2019-04-03T01:50:50.436Z,15.07
2019-04-03T01:55:50.078Z,13.33
2019-04-03T02:00:49.721Z,14.80
2019-04-03T02:05:49.330Z,13.27
2019-04-03T02:10:49.953Z,12.20
2019-04-03T02:15:52.219Z,13.47
2019-04-03T02:20:51.001Z,9.63
2019-04-03T02:25:50.916Z,14.00
2019-04-03T02:30:50.542Z,11.20
2019-04-03T02:35:50.161Z,11.20
2019-04-03T02:40:49.786Z,13.97
2019-04-03T02:45:49.743Z,10.70
2019-04-03T02:51:08.601Z,8.77
2019-04-03T02:56:11.850Z,13.10
2019-04-03T03:01:09.577Z,12.33
2019-04-03T03:06:09.661Z,10.80
2019-04-03T03:11:28.607Z,11.73
2019-04-03T03:16:28.483Z,13.77
2019-04-03T03:21:28.671Z,10.83
2019-04-03T03:26:30.012Z,13.50
2019-04-03T03:31:58.767Z,8.80
2019-04-03T03:36:32.585Z,10.90
2019-04-03T03:41:33.316Z,10.00
2019-04-03T03:46:33.403Z,12.57
2019-04-03T03:51:33.801Z,12.33
2019-04-03T03:56:33.750Z,11.87
2019-04-03T04:01:34.189Z,14.67
2019-04-03T04:06:36.186Z,11.80
2019-04-03T04:11:36.769Z,9.90
2019-04-03T04:16:37.685Z,12.00
2019-04-03T04:21:57.573Z,12.53
2019-04-03T04:26:57.333Z,13.70
2019-04-03T04:31:56.964Z,12.57
2019-04-03T04:36:57.728Z,10.57
2019-04-03T04:41:57.559Z,11.60
2019-04-03T04:46:57.269Z,13.07
2019-04-03T04:51:57.578Z,11.70
2019-04-03T04:56:57.301Z,12.53
2019-04-03T05:01:57.025Z,13.80
2019-04-03T05:06:59.687Z,14.40
2019-04-03T05:11:58.000Z,12.50
2019-04-03T05:16:57.684Z,12.17
2019-04-03T05:21:57.830Z,9.83
2019-04-03T05:26:57.493Z,9.10
2019-04-03T05:31:58.736Z,11.60
2019-04-03T05:36:58.488Z,11.17
2019-04-03T05:41:59.555Z,12.30
2019-04-03T05:47:00.020Z,8.20
2019-04-03T05:51:59.948Z,9.87
2019-04-03T05:56:59.951Z,12.17
2019-04-03T06:01:59.906Z,10.90
2019-04-03T06:07:00.000Z,11.93
2019-04-03T06:11:59.625Z,13.77
2019-04-03T06:16:59.574Z,11.80
2019-04-03T06:21:59.458Z,9.13
2019-04-03T06:26:59.211Z,9.70
2019-04-03T06:31:58.862Z,10.57
2019-04-03T06:36:58.603Z,12.83
2019-04-03T06:42:00.796Z,11.17
2019-04-03T06:47:01.623Z,9.40
2019-04-03T06:52:02.589Z,10.97
2019-04-03T06:57:02.245Z,13.60
2019-04-03T07:02:02.162Z,11.03
2019-04-03T07:07:02.230Z,12.83
2019-04-03T07:12:02.385Z,12.40
2019-04-03T07:17:05.159Z,10.87
2019-04-03T07:22:03.698Z,12.43
2019-04-03T07:27:06.055Z,10.60
2019-04-03T07:32:05.203Z,9.63
2019-04-03T07:37:04.886Z,13.80
2019-04-03T07:42:04.800Z,11.60
2019-04-03T07:47:05.352Z,13.87
2019-04-03T07:52:05.206Z,12.70
2019-04-03T07:57:04.925Z,10.63
2019-04-03T08:02:04.812Z,9.83
2019-04-03T08:07:04.605Z,10.60
2019-04-03T08:12:04.585Z,10.17
2019-04-03T08:17:04.461Z,13.97
2019-04-03T08:22:04.417Z,10.73
2019-04-03T08:27:07.760Z,9.50
2019-04-03T08:32:06.044Z,8.93
2019-04-03T08:37:05.916Z,12.30
2019-04-03T08:42:05.906Z,9.60
2019-04-03T08:47:05.583Z,16.00
2019-04-03T08:52:06.119Z,12.03
2019-04-03T08:57:05.929Z,14.23
2019-04-03T09:02:05.844Z,14.73
2019-04-03T09:07:07.273Z,17.60
2019-04-03T09:12:07.937Z,17.10
2019-04-03T09:17:07.938Z,13.20
2019-04-03T09:22:07.653Z,9.47
2019-04-03T09:27:09.806Z,14.40
2019-04-03T09:32:09.997Z,11.27
2019-04-03T09:37:09.718Z,14.10
2019-04-03T09:42:09.669Z,9.57
2019-04-03T09:47:09.578Z,11.83
2019-04-03T09:52:10.725Z,12.10
2019-04-03T09:57:10.836Z,15.07
2019-04-03T10:02:10.493Z,13.93
2019-04-03T10:07:10.528Z,14.07
2019-04-03T10:12:10.375Z,11.27
2019-04-03T10:17:10.519Z,13.20
2019-04-03T10:22:10.290Z,11.10
2019-04-03T10:27:11.197Z,8.90
2019-04-03T10:32:12.750Z,9.43
2019-04-03T10:37:14.770Z,10.47
2019-04-03T10:42:13.958Z,7.40
2019-04-03T10:47:13.708Z,8.80
2019-04-03T10:52:14.401Z,6.40
2019-04-03T10:57:14.497Z,6.67
2019-04-03T11:02:14.223Z,8.40
2019-04-03T11:07:14.570Z,7.97
2019-04-03T11:12:14.760Z,7.90
2019-04-03T11:17:15.975Z,9.63
2019-04-03T11:22:16.865Z,6.30
2019-04-03T11:27:16.574Z,10.20
2019-04-03T11:32:16.567Z,9.90
2019-04-03T11:37:17.155Z,7.90
2019-04-03T11:42:23.889Z,9.93
2019-04-03T11:47:18.992Z,7.40
2019-04-03T11:52:18.754Z,8.50
2019-04-03T11:57:19.582Z,9.50
2019-04-03T12:02:20.576Z,7.63
2019-04-03T12:07:20.297Z,8.73
2019-04-03T12:12:20.485Z,11.17
2019-04-03T12:17:20.390Z,7.80
2019-04-03T12:22:22.076Z,10.37
2019-04-03T12:27:21.702Z,11.77
2019-04-03T12:32:21.605Z,8.87
2019-04-03T12:37:24.183Z,6.27
2019-04-03T12:42:42.210Z,6.90
2019-04-03T12:47:44.440Z,7.30
2019-04-03T12:52:44.808Z,8.57
2019-04-03T12:57:45.189Z,7.93
2019-04-03T13:02:44.987Z,8.80
2019-04-03T13:07:47.071Z,6.97
2019-04-03T13:13:05.170Z,7.33
2019-04-03T13:18:04.973Z,6.50
2019-04-03T13:23:04.606Z,10.33
2019-04-03T13:28:04.908Z,7.27
2019-04-03T13:33:06.636Z,7.80
2019-04-03T13:38:06.276Z,8.50
2019-04-03T13:43:06.122Z,8.47
2019-04-03T13:48:05.810Z,8.50
2019-04-03T13:53:05.730Z,8.40
2019-04-03T13:58:05.836Z,6.63
2019-04-03T14:03:05.822Z,7.70
2019-04-03T14:08:07.267Z,5.40
2019-04-03T14:13:07.229Z,7.33
2019-04-03T14:18:07.877Z,8.10
2019-04-03T14:23:08.740Z,7.20
2019-04-03T14:28:08.525Z,10.47
2019-04-03T14:33:08.158Z,7.90
2019-04-03T14:38:07.835Z,7.37
2019-04-03T14:43:07.477Z,11.80
2019-04-03T14:48:07.201Z,8.53
2019-04-03T14:53:08.044Z,10.90
2019-04-03T14:58:07.751Z,10.50
2019-04-03T15:03:07.394Z,11.90
2019-04-03T15:08:07.377Z,8.10
2019-04-03T15:13:07.015Z,9.67
2019-04-03T15:18:09.179Z,9.17
2019-04-03T15:23:08.414Z,5.93
2019-04-03T15:28:08.437Z,7.27
2019-04-03T15:33:08.306Z,7.77
2019-04-03T15:38:07.950Z,4.70
2019-04-03T15:43:10.834Z,5.30
2019-04-03T15:48:09.140Z,6.10
2019-04-03T15:53:08.794Z,5.30
2019-04-03T15:58:08.423Z,4.30
2019-04-03T16:03:08.342Z,5.93
2019-04-03T16:08:09.802Z,7.30
2019-04-03T16:13:09.506Z,5.13
2019-04-03T16:18:09.515Z,6.33
2019-04-03T16:23:09.206Z,6.50
2019-04-03T16:28:08.817Z,4.17
2019-04-03T16:33:18.925Z,6.37
2019-04-03T16:38:09.761Z,4.60
2019-04-03T16:43:09.458Z,4.83
2019-04-03T16:48:11.122Z,4.80
2019-04-03T16:53:11.185Z,6.10
2019-04-03T16:58:11.260Z,4.23
2019-04-03T17:03:10.995Z,5.20
2019-04-03T17:08:11.282Z,7.40
2019-04-03T17:13:11.268Z,5.93
2019-04-03T17:18:11.114Z,5.57
2019-04-03T17:23:12.823Z,5.57
2019-04-03T17:28:12.879Z,5.93
2019-04-03T17:33:12.650Z,5.73
2019-04-03T17:38:12.303Z,4.63
2019-04-03T17:43:13.084Z,6.30
2019-04-03T17:48:13.420Z,5.20
2019-04-03T17:53:13.060Z,6.93
2019-04-03T17:58:12.750Z,8.10
2019-04-03T18:03:12.365Z,6.60
2019-04-03T18:08:12.017Z,5.70
2019-04-03T18:13:13.062Z,8.13
2019-04-03T18:18:12.680Z,9.47
2019-04-03T18:23:13.678Z,8.27
2019-04-03T18:28:24.962Z,8.57
2019-04-03T18:33:24.593Z,9.23
2019-04-03T18:38:24.210Z,9.17
2019-04-03T18:43:23.849Z,11.30
2019-04-03T18:48:23.514Z,9.80
2019-04-03T18:53:23.177Z,10.10
2019-04-03T18:58:23.818Z,12.20
2019-04-03T19:03:24.383Z,12.43
2019-04-03T19:08:24.991Z,12.00
2019-04-03T19:13:24.877Z,13.03
2019-04-03T19:18:24.534Z,11.43
2019-04-03T19:23:24.177Z,13.00
2019-04-03T19:28:24.386Z,12.30
2019-04-03T19:33:24.014Z,13.53
2019-04-03T19:38:24.110Z,14.23
2019-04-03T19:43:24.450Z,13.97
2019-04-03T19:48:25.671Z,15.27
2019-04-03T19:53:26.280Z,14.27
2019-04-03T19:58:28.764Z,15.73
2019-04-03T20:03:27.551Z,15.90
2019-04-03T20:08:29.665Z,17.17
2019-04-03T20:13:28.605Z,18.03
2019-04-03T20:18:28.248Z,19.67
2019-04-03T20:23:30.143Z,18.17
2019-04-03T20:28:29.436Z,20.20
2019-04-03T20:33:29.445Z,20.80
2019-04-03T20:38:29.451Z,20.20
2019-04-03T20:43:29.101Z,19.57
2019-04-03T20:48:28.825Z,21.27
2019-04-03T20:53:29.549Z,20.20
2019-04-03T20:58:29.473Z,21.57
2019-04-03T21:03:29.113Z,21.93
2019-04-03T21:08:31.451Z,23.90
2019-04-03T21:13:30.152Z,22.57
2019-04-03T21:18:29.812Z,21.60
2019-04-03T21:23:29.709Z,22.80
2019-04-03T21:28:29.349Z,23.20
2019-04-03T21:33:30.720Z,23.93
2019-04-03T21:38:31.202Z,22.43
2019-04-03T21:43:50.379Z,21.13
2019-04-03T21:48:50.041Z,23.70
2019-04-03T21:53:50.622Z,22.33
2019-04-03T21:58:50.599Z,23.40
2019-04-03T22:03:51.403Z,24.37
2019-04-03T22:08:51.860Z,22.70
2019-04-03T22:13:51.565Z,24.47
2019-04-03T22:18:52.906Z,23.07
2019-04-03T22:23:52.709Z,22.03
2019-04-03T22:28:52.640Z,23.27
2019-04-03T22:33:52.269Z,22.80
2019-04-03T22:38:51.966Z,23.70
2019-04-03T22:43:51.970Z,24.83
2019-04-03T22:48:51.592Z,24.27
2019-04-03T22:53:51.509Z,24.03
2019-04-03T22:58:52.932Z,24.53
2019-04-03T23:03:52.584Z,22.40
2019-04-03T23:08:53.816Z,26.80
2019-04-03T23:13:53.973Z,15.60
2019-04-03T23:18:53.623Z,16.80
2019-04-03T23:23:53.236Z,19.37
2019-04-03T23:28:52.876Z,20.97
2019-04-03T23:33:52.497Z,20.07
2019-04-03T23:38:52.410Z,20.73
2019-04-03T23:43:52.033Z,21.20
2019-04-03T23:48:51.680Z,12.50
2019-04-03T23:53:51.598Z,11.93
2019-04-03T23:58:51.205Z,8.00
